sensor_id;sensor_type;location;lat;lon;timestamp;temperature;humidity
13561;DHT22;6852;51.686;5.314;2023-07-02T00:00:01;17.90;81.90
13561;DHT22;6852;51.686;5.314;2023-07-02T00:02:28;17.80;99.90
13561;DHT22;6852;51.686;5.314;2023-07-02T00:04:55;17.90;99.90
13561;DHT22;6852;51.686;5.314;2023-07-02T00:07:22;17.90;99.90
13561;DHT22;6852;51.686;5.314;2023-07-02T00:09:49;17.80;99.90
13561;DHT22;6852;51.686;5.314;2023-07-02T00:12:16;17.90;99.90
13561;DHT22;6852;51.686;5.314;2023-07-02T00:14:43;17.90;99.90
13561;DHT22;6852;51.686;5.314;2023-07-02T00:17:10;17.90;23.90
13561;DHT22;6852;51.686;5.314;2023-07-02T00:19:40;17.70;99.90
13561;DHT22;6852;51.686;5.314;2023-07-02T00:22:12;17.70;99.90
13561;DHT22;6852;51.686;5.314;2023-07-02T00:24:42;17.70;99.90
13561;DHT22;6852;51.686;5.314;2023-07-02T00:27:09;17.70;99.90
13561;DHT22;6852;51.686;5.314;2023-07-02T00:29:36;17.70;1.00
13561;DHT22;6852;51.686;5.314;2023-07-02T00:32:03;17.80;1.00
13561;DHT22;6852;51.686;5.314;2023-07-02T00:34:30;17.70;99.90
13561;DHT22;6852;51.686;5.314;2023-07-02T00:36:57;17.70;99.90
13561;DHT22;6852;51.686;5.314;2023-07-02T00:39:24;17.70;99.90
13561;DHT22;6852;51.686;5.314;2023-07-02T00:41:50;17.70;26.30
13561;DHT22;6852;51.686;5.314;2023-07-02T00:44:17;17.80;99.90
13561;DHT22;6852;51.686;5.314;2023-07-02T00:46:44;17.80;1.00
13561;DHT22;6852;51.686;5.314;2023-07-02T00:49:11;17.80;99.90
13561;DHT22;6852;51.686;5.314;2023-07-02T00:51:38;17.70;17.20
13561;DHT22;6852;51.686;5.314;2023-07-02T00:54:05;17.70;99.90
13561;DHT22;6852;51.686;5.314;2023-07-02T00:56:32;17.80;99.90
13561;DHT22;6852;51.686;5.314;2023-07-02T00:58:59;17.70;99.90
13561;DHT22;6852;51.686;5.314;2023-07-02T01:01:27;17.70;99.90
13561;DHT22;6852;51.686;5.314;2023-07-02T01:03:59;17.70;99.90
13561;DHT22;6852;51.686;5.314;2023-07-02T01:06:28;17.60;99.90
13561;DHT22;6852;51.686;5.314;2023-07-02T01:08:57;17.70;1.00
13561;DHT22;6852;51.686;5.314;2023-07-02T01:11:31;17.60;99.90
13561;DHT22;6852;51.686;5.314;2023-07-02T01:14:05;17.60;1.00
13561;DHT22;6852;51.686;5.314;2023-07-02T01:16:34;17.60;1.00
13561;DHT22;6852;51.686;5.314;2023-07-02T01:19:05;17.70;1.00
13561;DHT22;6852;51.686;5.314;2023-07-02T01:21:35;17.60;1.00
13561;DHT22;6852;51.686;5.314;2023-07-02T01:24:03;17.70;1.00
13561;DHT22;6852;51.686;5.314;2023-07-02T01:26:31;17.70;1.00
13561;DHT22;6852;51.686;5.314;2023-07-02T01:29:17;17.80;1.00
13561;DHT22;6852;51.686;5.314;2023-07-02T01:31:45;17.60;1.00
13561;DHT22;6852;51.686;5.314;2023-07-02T01:34:13;17.70;1.00
13561;DHT22;6852;51.686;5.314;2023-07-02T01:36:40;17.60;1.00
13561;DHT22;6852;51.686;5.314;2023-07-02T01:39:07;17.70;1.00
13561;DHT22;6852;51.686;5.314;2023-07-02T01:42:23;17.60;99.90
13561;DHT22;6852;51.686;5.314;2023-07-02T01:44:24;17.50;99.90
13561;DHT22;6852;51.686;5.314;2023-07-02T01:46:51;17.60;99.90
13561;DHT22;6852;51.686;5.314;2023-07-02T01:49:18;17.60;99.90
13561;DHT22;6852;51.686;5.314;2023-07-02T01:51:49;17.70;1.00
13561;DHT22;6852;51.686;5.314;2023-07-02T01:54:17;17.70;1.00
13561;DHT22;6852;51.686;5.314;2023-07-02T01:56:44;17.60;1.00
13561;DHT22;6852;51.686;5.314;2023-07-02T01:59:11;17.60;1.00
13561;DHT22;6852;51.686;5.314;2023-07-02T02:01:38;17.60;99.90
13561;DHT22;6852;51.686;5.314;2023-07-02T02:04:08;17.50;1.00
13561;DHT22;6852;51.686;5.314;2023-07-02T02:06:36;17.50;99.90
13561;DHT22;6852;51.686;5.314;2023-07-02T02:09:04;17.60;48.00
13561;DHT22;6852;51.686;5.314;2023-07-02T02:11:32;17.50;1.00
13561;DHT22;6852;51.686;5.314;2023-07-02T02:13:59;17.30;1.00
13561;DHT22;6852;51.686;5.314;2023-07-02T02:16:27;17.30;99.90
13561;DHT22;6852;51.686;5.314;2023-07-02T02:18:55;17.30;99.90
13561;DHT22;6852;51.686;5.314;2023-07-02T02:21:22;17.30;99.90
13561;DHT22;6852;51.686;5.314;2023-07-02T02:23:49;17.30;1.00
13561;DHT22;6852;51.686;5.314;2023-07-02T02:26:16;17.20;99.90
13561;DHT22;6852;51.686;5.314;2023-07-02T02:28:43;17.20;1.00
13561;DHT22;6852;51.686;5.314;2023-07-02T02:31:09;17.20;1.00
13561;DHT22;6852;51.686;5.314;2023-07-02T02:33:37;17.30;1.00
13561;DHT22;6852;51.686;5.314;2023-07-02T02:36:04;17.40;1.00
13561;DHT22;6852;51.686;5.314;2023-07-02T02:38:31;17.30;1.00
13561;DHT22;6852;51.686;5.314;2023-07-02T02:40:58;17.20;1.00
13561;DHT22;6852;51.686;5.314;2023-07-02T02:43:25;17.20;1.00
13561;DHT22;6852;51.686;5.314;2023-07-02T02:45:52;17.10;1.00
13561;DHT22;6852;51.686;5.314;2023-07-02T02:48:18;17.00;1.00
13561;DHT22;6852;51.686;5.314;2023-07-02T02:50:46;16.90;1.00
13561;DHT22;6852;51.686;5.314;2023-07-02T02:53:13;16.90;1.00
13561;DHT22;6852;51.686;5.314;2023-07-02T02:55:40;16.90;1.00
13561;DHT22;6852;51.686;5.314;2023-07-02T02:58:07;16.70;1.00
13561;DHT22;6852;51.686;5.314;2023-07-02T03:00:34;16.70;1.00
13561;DHT22;6852;51.686;5.314;2023-07-02T03:03:01;16.80;12.90
13561;DHT22;6852;51.686;5.314;2023-07-02T03:05:29;16.90;1.00
13561;DHT22;6852;51.686;5.314;2023-07-02T03:07:56;16.80;1.00
13561;DHT22;6852;51.686;5.314;2023-07-02T03:10:23;16.80;1.00
13561;DHT22;6852;51.686;5.314;2023-07-02T03:12:50;16.70;80.00
13561;DHT22;6852;51.686;5.314;2023-07-02T03:15:17;16.60;90.10
13561;DHT22;6852;51.686;5.314;2023-07-02T03:17:44;16.80;1.00
13561;DHT22;6852;51.686;5.314;2023-07-02T03:20:11;16.80;1.00
13561;DHT22;6852;51.686;5.314;2023-07-02T03:22:38;16.70;13.00
13561;DHT22;6852;51.686;5.314;2023-07-02T03:25:05;16.80;1.00
13561;DHT22;6852;51.686;5.314;2023-07-02T03:27:32;16.80;1.00
13561;DHT22;6852;51.686;5.314;2023-07-02T03:29:59;16.80;1.00
13561;DHT22;6852;51.686;5.314;2023-07-02T03:32:26;16.90;1.00
13561;DHT22;6852;51.686;5.314;2023-07-02T03:34:52;16.80;1.00
13561;DHT22;6852;51.686;5.314;2023-07-02T03:37:19;16.70;1.00
13561;DHT22;6852;51.686;5.314;2023-07-02T03:39:46;16.70;1.00
13561;DHT22;6852;51.686;5.314;2023-07-02T03:42:13;16.60;1.00
13561;DHT22;6852;51.686;5.314;2023-07-02T03:44:40;16.60;1.00
13561;DHT22;6852;51.686;5.314;2023-07-02T03:47:07;16.60;1.00
13561;DHT22;6852;51.686;5.314;2023-07-02T03:49:35;16.50;1.00
13561;DHT22;6852;51.686;5.314;2023-07-02T03:52:02;16.50;1.00
13561;DHT22;6852;51.686;5.314;2023-07-02T03:54:28;16.40;1.00
13561;DHT22;6852;51.686;5.314;2023-07-02T03:56:55;16.30;1.00
13561;DHT22;6852;51.686;5.314;2023-07-02T03:59:22;16.30;1.00
13561;DHT22;6852;51.686;5.314;2023-07-02T04:01:49;16.50;1.00
13561;DHT22;6852;51.686;5.314;2023-07-02T04:04:18;16.40;1.00
13561;DHT22;6852;51.686;5.314;2023-07-02T04:06:45;16.30;99.90
13561;DHT22;6852;51.686;5.314;2023-07-02T04:09:12;16.20;1.00
13561;DHT22;6852;51.686;5.314;2023-07-02T04:11:39;16.20;99.90
13561;DHT22;6852;51.686;5.314;2023-07-02T04:14:06;16.30;1.00
13561;DHT22;6852;51.686;5.314;2023-07-02T04:16:33;16.40;99.90
13561;DHT22;6852;51.686;5.314;2023-07-02T04:19:00;16.20;99.90
13561;DHT22;6852;51.686;5.314;2023-07-02T04:21:27;16.20;1.00
13561;DHT22;6852;51.686;5.314;2023-07-02T04:23:54;16.20;99.90
13561;DHT22;6852;51.686;5.314;2023-07-02T04:26:21;16.20;99.90
13561;DHT22;6852;51.686;5.314;2023-07-02T04:29:09;16.20;1.00
13561;DHT22;6852;51.686;5.314;2023-07-02T04:31:37;16.30;1.00
13561;DHT22;6852;51.686;5.314;2023-07-02T04:34:04;16.30;99.90
13561;DHT22;6852;51.686;5.314;2023-07-02T04:36:32;16.20;99.90
13561;DHT22;6852;51.686;5.314;2023-07-02T04:38:59;16.20;99.90
13561;DHT22;6852;51.686;5.314;2023-07-02T04:41:26;16.00;99.90
13561;DHT22;6852;51.686;5.314;2023-07-02T04:43:53;16.00;99.90
13561;DHT22;6852;51.686;5.314;2023-07-02T04:46:20;16.00;99.90
13561;DHT22;6852;51.686;5.314;2023-07-02T04:48:47;16.20;99.90
13561;DHT22;6852;51.686;5.314;2023-07-02T04:51:15;16.20;99.90
13561;DHT22;6852;51.686;5.314;2023-07-02T04:53:41;16.10;99.90
13561;DHT22;6852;51.686;5.314;2023-07-02T04:56:09;16.20;99.90
13561;DHT22;6852;51.686;5.314;2023-07-02T04:58:35;16.20;99.90
13561;DHT22;6852;51.686;5.314;2023-07-02T05:01:02;16.20;99.90
13561;DHT22;6852;51.686;5.314;2023-07-02T05:03:29;16.30;99.90
13561;DHT22;6852;51.686;5.314;2023-07-02T05:05:56;16.20;99.90
13561;DHT22;6852;51.686;5.314;2023-07-02T05:08:23;16.10;1.00
13561;DHT22;6852;51.686;5.314;2023-07-02T05:10:51;16.10;99.90
13561;DHT22;6852;51.686;5.314;2023-07-02T05:13:18;16.20;99.90
13561;DHT22;6852;51.686;5.314;2023-07-02T05:15:45;16.00;99.90
13561;DHT22;6852;51.686;5.314;2023-07-02T05:18:12;16.00;1.00
13561;DHT22;6852;51.686;5.314;2023-07-02T05:20:40;16.10;1.00
13561;DHT22;6852;51.686;5.314;2023-07-02T05:23:07;16.20;1.00
13561;DHT22;6852;51.686;5.314;2023-07-02T05:25:34;16.30;99.90
13561;DHT22;6852;51.686;5.314;2023-07-02T05:28:01;16.40;99.90
13561;DHT22;6852;51.686;5.314;2023-07-02T05:30:28;16.50;99.90
13561;DHT22;6852;51.686;5.314;2023-07-02T05:32:55;16.50;99.90
13561;DHT22;6852;51.686;5.314;2023-07-02T05:35:22;16.50;99.90
13561;DHT22;6852;51.686;5.314;2023-07-02T05:37:48;16.60;99.90
13561;DHT22;6852;51.686;5.314;2023-07-02T05:40:15;16.50;99.90
13561;DHT22;6852;51.686;5.314;2023-07-02T05:42:43;16.70;99.90
13561;DHT22;6852;51.686;5.314;2023-07-02T05:45:10;16.60;99.90
13561;DHT22;6852;51.686;5.314;2023-07-02T05:47:37;16.60;99.90
13561;DHT22;6852;51.686;5.314;2023-07-02T05:50:06;16.60;99.90
13561;DHT22;6852;51.686;5.314;2023-07-02T05:52:33;16.80;99.90
13561;DHT22;6852;51.686;5.314;2023-07-02T05:54:59;16.70;99.90
13561;DHT22;6852;51.686;5.314;2023-07-02T05:57:26;16.60;99.90
13561;DHT22;6852;51.686;5.314;2023-07-02T05:59:53;16.60;99.90
13561;DHT22;6852;51.686;5.314;2023-07-02T06:02:20;16.50;99.90
13561;DHT22;6852;51.686;5.314;2023-07-02T06:04:47;16.60;99.90
13561;DHT22;6852;51.686;5.314;2023-07-02T06:07:14;16.80;99.90
13561;DHT22;6852;51.686;5.314;2023-07-02T06:09:41;16.90;99.90
13561;DHT22;6852;51.686;5.314;2023-07-02T06:12:08;16.90;99.90
13561;DHT22;6852;51.686;5.314;2023-07-02T06:14:35;16.80;91.60
13561;DHT22;6852;51.686;5.314;2023-07-02T06:17:02;16.90;92.50
13561;DHT22;6852;51.686;5.314;2023-07-02T06:19:32;16.80;1.00
13561;DHT22;6852;51.686;5.314;2023-07-02T06:22:00;16.90;1.00
13561;DHT22;6852;51.686;5.314;2023-07-02T06:24:27;16.90;1.00
13561;DHT22;6852;51.686;5.314;2023-07-02T06:26:53;16.90;1.00
13561;DHT22;6852;51.686;5.314;2023-07-02T06:29:23;17.00;1.00
13561;DHT22;6852;51.686;5.314;2023-07-02T06:31:50;17.00;1.00
13561;DHT22;6852;51.686;5.314;2023-07-02T06:34:17;17.10;1.00
13561;DHT22;6852;51.686;5.314;2023-07-02T06:36:44;17.10;1.00
13561;DHT22;6852;51.686;5.314;2023-07-02T06:39:11;17.10;1.00
13561;DHT22;6852;51.686;5.314;2023-07-02T06:41:38;17.20;1.00
13561;DHT22;6852;51.686;5.314;2023-07-02T06:44:05;17.30;1.00
13561;DHT22;6852;51.686;5.314;2023-07-02T06:46:32;17.30;1.00
13561;DHT22;6852;51.686;5.314;2023-07-02T06:48:59;17.30;1.00
13561;DHT22;6852;51.686;5.314;2023-07-02T06:51:26;17.40;1.00
13561;DHT22;6852;51.686;5.314;2023-07-02T06:53:54;17.40;1.00
13561;DHT22;6852;51.686;5.314;2023-07-02T06:56:20;17.40;1.00
13561;DHT22;6852;51.686;5.314;2023-07-02T06:58:47;17.40;1.00
13561;DHT22;6852;51.686;5.314;2023-07-02T07:01:14;17.50;1.00
13561;DHT22;6852;51.686;5.314;2023-07-02T07:03:41;17.60;1.00
13561;DHT22;6852;51.686;5.314;2023-07-02T07:06:08;17.50;1.00
13561;DHT22;6852;51.686;5.314;2023-07-02T07:08:37;17.40;1.00
13561;DHT22;6852;51.686;5.314;2023-07-02T07:11:05;17.60;1.00
13561;DHT22;6852;51.686;5.314;2023-07-02T07:13:32;17.60;1.00
13561;DHT22;6852;51.686;5.314;2023-07-02T07:15:59;17.60;1.00
13561;DHT22;6852;51.686;5.314;2023-07-02T07:18:26;17.60;1.00
13561;DHT22;6852;51.686;5.314;2023-07-02T07:20:56;17.60;1.00
13561;DHT22;6852;51.686;5.314;2023-07-02T07:23:23;17.70;1.00
13561;DHT22;6852;51.686;5.314;2023-07-02T07:25:50;17.80;1.00
13561;DHT22;6852;51.686;5.314;2023-07-02T07:28:17;17.70;1.00
13561;DHT22;6852;51.686;5.314;2023-07-02T07:30:44;17.80;1.00
13561;DHT22;6852;51.686;5.314;2023-07-02T07:33:11;17.80;1.00
13561;DHT22;6852;51.686;5.314;2023-07-02T07:35:38;17.70;1.00
13561;DHT22;6852;51.686;5.314;2023-07-02T07:38:05;17.80;1.00
13561;DHT22;6852;51.686;5.314;2023-07-02T07:40:32;17.80;1.00
13561;DHT22;6852;51.686;5.314;2023-07-02T07:42:59;18.00;1.00
13561;DHT22;6852;51.686;5.314;2023-07-02T07:45:26;17.90;1.00
13561;DHT22;6852;51.686;5.314;2023-07-02T07:47:53;17.90;1.00
13561;DHT22;6852;51.686;5.314;2023-07-02T07:50:20;17.80;1.00
13561;DHT22;6852;51.686;5.314;2023-07-02T07:52:48;17.90;1.00
13561;DHT22;6852;51.686;5.314;2023-07-02T07:55:14;18.00;1.00
13561;DHT22;6852;51.686;5.314;2023-07-02T07:57:41;18.00;1.00
13561;DHT22;6852;51.686;5.314;2023-07-02T08:00:09;18.00;1.00
13561;DHT22;6852;51.686;5.314;2023-07-02T08:02:38;18.10;1.00
13561;DHT22;6852;51.686;5.314;2023-07-02T08:05:06;18.10;1.00
13561;DHT22;6852;51.686;5.314;2023-07-02T08:07:33;18.20;1.00
13561;DHT22;6852;51.686;5.314;2023-07-02T08:10:00;18.10;1.00
13561;DHT22;6852;51.686;5.314;2023-07-02T08:12:28;18.10;1.00
13561;DHT22;6852;51.686;5.314;2023-07-02T08:14:58;18.00;1.00
13561;DHT22;6852;51.686;5.314;2023-07-02T08:17:25;18.10;1.00
13561;DHT22;6852;51.686;5.314;2023-07-02T08:19:52;18.20;1.00
13561;DHT22;6852;51.686;5.314;2023-07-02T08:22:19;18.10;1.00
13561;DHT22;6852;51.686;5.314;2023-07-02T08:24:46;18.20;1.00
13561;DHT22;6852;51.686;5.314;2023-07-02T08:27:16;18.20;1.00
13561;DHT22;6852;51.686;5.314;2023-07-02T08:29:47;18.00;1.00
13561;DHT22;6852;51.686;5.314;2023-07-02T08:32:15;17.90;1.00
13561;DHT22;6852;51.686;5.314;2023-07-02T08:34:42;17.90;1.00
13561;DHT22;6852;51.686;5.314;2023-07-02T08:37:09;17.80;1.00
13561;DHT22;6852;51.686;5.314;2023-07-02T08:39:37;17.70;1.00
13561;DHT22;6852;51.686;5.314;2023-07-02T08:42:07;17.60;1.00
13561;DHT22;6852;51.686;5.314;2023-07-02T08:44:34;18.00;1.00
13561;DHT22;6852;51.686;5.314;2023-07-02T08:47:02;18.20;1.00
13561;DHT22;6852;51.686;5.314;2023-07-02T08:49:29;18.30;1.00
13561;DHT22;6852;51.686;5.314;2023-07-02T08:51:56;18.50;1.00
13561;DHT22;6852;51.686;5.314;2023-07-02T08:54:23;18.80;1.00
13561;DHT22;6852;51.686;5.314;2023-07-02T08:56:49;18.80;1.00
13561;DHT22;6852;51.686;5.314;2023-07-02T08:59:16;18.90;1.00
13561;DHT22;6852;51.686;5.314;2023-07-02T09:01:51;18.60;1.00
13561;DHT22;6852;51.686;5.314;2023-07-02T09:04:21;18.80;1.00
13561;DHT22;6852;51.686;5.314;2023-07-02T09:07:09;18.50;1.00
13561;DHT22;6852;51.686;5.314;2023-07-02T09:09:47;18.60;1.00
13561;DHT22;6852;51.686;5.314;2023-07-02T09:12:27;18.60;1.00
13561;DHT22;6852;51.686;5.314;2023-07-02T09:14:59;18.70;1.00
13561;DHT22;6852;51.686;5.314;2023-07-02T09:17:34;19.00;1.00
13561;DHT22;6852;51.686;5.314;2023-07-02T09:20:07;18.90;1.00
13561;DHT22;6852;51.686;5.314;2023-07-02T09:22:36;19.00;1.00
13561;DHT22;6852;51.686;5.314;2023-07-02T09:25:03;18.90;1.00
13561;DHT22;6852;51.686;5.314;2023-07-02T09:27:39;18.70;1.00
13561;DHT22;6852;51.686;5.314;2023-07-02T09:30:08;19.10;1.00
13561;DHT22;6852;51.686;5.314;2023-07-02T09:32:35;19.70;1.00
13561;DHT22;6852;51.686;5.314;2023-07-02T09:35:02;19.70;1.00
13561;DHT22;6852;51.686;5.314;2023-07-02T09:37:31;19.30;1.00
13561;DHT22;6852;51.686;5.314;2023-07-02T09:39:58;19.20;1.00
13561;DHT22;6852;51.686;5.314;2023-07-02T09:42:28;19.30;1.00
13561;DHT22;6852;51.686;5.314;2023-07-02T09:44:55;19.60;1.00
13561;DHT22;6852;51.686;5.314;2023-07-02T09:47:24;19.40;1.00
13561;DHT22;6852;51.686;5.314;2023-07-02T09:49:55;19.10;1.00
13561;DHT22;6852;51.686;5.314;2023-07-02T09:52:23;19.10;1.00
13561;DHT22;6852;51.686;5.314;2023-07-02T09:54:50;19.50;1.00
13561;DHT22;6852;51.686;5.314;2023-07-02T09:57:17;19.70;99.90
13561;DHT22;6852;51.686;5.314;2023-07-02T09:59:44;19.60;99.90
13561;DHT22;6852;51.686;5.314;2023-07-02T10:02:12;19.60;99.90
13561;DHT22;6852;51.686;5.314;2023-07-02T10:04:48;19.40;99.90
13561;DHT22;6852;51.686;5.314;2023-07-02T10:07:30;19.40;99.90
13561;DHT22;6852;51.686;5.314;2023-07-02T10:09:57;19.20;99.90
13561;DHT22;6852;51.686;5.314;2023-07-02T10:12:28;19.20;99.90
13561;DHT22;6852;51.686;5.314;2023-07-02T10:14:58;19.20;99.90
13561;DHT22;6852;51.686;5.314;2023-07-02T10:17:30;19.00;99.90
13561;DHT22;6852;51.686;5.314;2023-07-02T10:20:00;19.10;99.90
13561;DHT22;6852;51.686;5.314;2023-07-02T10:22:27;19.10;99.90
13561;DHT22;6852;51.686;5.314;2023-07-02T10:24:58;19.20;99.90
13561;DHT22;6852;51.686;5.314;2023-07-02T10:27:38;19.30;99.90
13561;DHT22;6852;51.686;5.314;2023-07-02T10:30:06;19.20;99.90
13561;DHT22;6852;51.686;5.314;2023-07-02T10:32:34;19.30;99.90
13561;DHT22;6852;51.686;5.314;2023-07-02T10:37:39;19.60;99.90
13561;DHT22;6852;51.686;5.314;2023-07-02T10:40:07;19.90;99.90
13561;DHT22;6852;51.686;5.314;2023-07-02T10:42:45;20.20;99.90
13561;DHT22;6852;51.686;5.314;2023-07-02T10:45:12;19.90;99.90
13561;DHT22;6852;51.686;5.314;2023-07-02T10:47:40;20.00;99.90
13561;DHT22;6852;51.686;5.314;2023-07-02T10:50:18;19.90;99.90
13561;DHT22;6852;51.686;5.314;2023-07-02T10:52:46;20.30;99.90
13561;DHT22;6852;51.686;5.314;2023-07-02T10:55:21;20.20;99.90
13561;DHT22;6852;51.686;5.314;2023-07-02T10:57:50;20.20;99.90
13561;DHT22;6852;51.686;5.314;2023-07-02T11:00:19;20.10;99.90
13561;DHT22;6852;51.686;5.314;2023-07-02T11:02:46;20.30;99.90
13561;DHT22;6852;51.686;5.314;2023-07-02T11:05:13;20.80;99.90
13561;DHT22;6852;51.686;5.314;2023-07-02T11:07:42;20.80;99.90
13561;DHT22;6852;51.686;5.314;2023-07-02T11:10:10;20.70;99.90
13561;DHT22;6852;51.686;5.314;2023-07-02T11:12:38;21.10;99.90
13561;DHT22;6852;51.686;5.314;2023-07-02T11:15:15;21.20;99.90
13561;DHT22;6852;51.686;5.314;2023-07-02T11:17:44;21.00;99.90
13561;DHT22;6852;51.686;5.314;2023-07-02T11:20:12;20.40;99.90
13561;DHT22;6852;51.686;5.314;2023-07-02T11:22:40;19.80;99.90
13561;DHT22;6852;51.686;5.314;2023-07-02T11:25:17;19.70;99.90
13561;DHT22;6852;51.686;5.314;2023-07-02T11:27:44;19.80;99.90
13561;DHT22;6852;51.686;5.314;2023-07-02T11:30:12;20.00;99.90
13561;DHT22;6852;51.686;5.314;2023-07-02T11:32:53;20.70;99.90
13561;DHT22;6852;51.686;5.314;2023-07-02T11:35:21;21.10;99.90
13561;DHT22;6852;51.686;5.314;2023-07-02T11:37:49;21.60;99.90
13561;DHT22;6852;51.686;5.314;2023-07-02T11:40:19;22.00;99.90
13561;DHT22;6852;51.686;5.314;2023-07-02T11:42:46;21.20;99.90
13561;DHT22;6852;51.686;5.314;2023-07-02T11:45:13;21.00;99.90
13561;DHT22;6852;51.686;5.314;2023-07-02T11:47:40;20.90;99.90
13561;DHT22;6852;51.686;5.314;2023-07-02T11:50:08;21.40;99.90
13561;DHT22;6852;51.686;5.314;2023-07-02T11:52:51;21.80;99.90
13561;DHT22;6852;51.686;5.314;2023-07-02T11:55:18;21.70;99.90
13561;DHT22;6852;51.686;5.314;2023-07-02T11:57:45;21.90;99.90
13561;DHT22;6852;51.686;5.314;2023-07-02T12:00:14;21.50;99.90
13561;DHT22;6852;51.686;5.314;2023-07-02T12:02:40;21.50;99.90
13561;DHT22;6852;51.686;5.314;2023-07-02T12:05:08;21.40;99.90
13561;DHT22;6852;51.686;5.314;2023-07-02T12:07:38;21.40;99.90
13561;DHT22;6852;51.686;5.314;2023-07-02T12:10:07;21.30;99.90
13561;DHT22;6852;51.686;5.314;2023-07-02T12:12:34;21.00;99.90
13561;DHT22;6852;51.686;5.314;2023-07-02T12:15:01;20.70;99.90
13561;DHT22;6852;51.686;5.314;2023-07-02T12:17:29;21.10;99.90
13561;DHT22;6852;51.686;5.314;2023-07-02T12:19:57;21.20;99.90
13561;DHT22;6852;51.686;5.314;2023-07-02T12:22:24;20.90;99.90
13561;DHT22;6852;51.686;5.314;2023-07-02T12:24:51;21.10;99.90
13561;DHT22;6852;51.686;5.314;2023-07-02T12:27:20;21.60;99.90
13561;DHT22;6852;51.686;5.314;2023-07-02T12:29:47;21.40;99.90
13561;DHT22;6852;51.686;5.314;2023-07-02T12:32:15;21.00;99.90
13561;DHT22;6852;51.686;5.314;2023-07-02T12:34:42;21.10;99.90
13561;DHT22;6852;51.686;5.314;2023-07-02T12:37:09;20.70;99.90
13561;DHT22;6852;51.686;5.314;2023-07-02T12:39:36;21.00;99.90
13561;DHT22;6852;51.686;5.314;2023-07-02T12:42:03;21.30;99.90
13561;DHT22;6852;51.686;5.314;2023-07-02T12:44:29;21.10;99.90
13561;DHT22;6852;51.686;5.314;2023-07-02T12:46:56;21.00;99.90
13561;DHT22;6852;51.686;5.314;2023-07-02T12:49:23;21.10;99.90
13561;DHT22;6852;51.686;5.314;2023-07-02T12:51:50;21.30;99.90
13561;DHT22;6852;51.686;5.314;2023-07-02T12:54:17;21.40;99.90
13561;DHT22;6852;51.686;5.314;2023-07-02T12:56:44;21.40;99.90
13561;DHT22;6852;51.686;5.314;2023-07-02T12:59:11;21.20;99.90
13561;DHT22;6852;51.686;5.314;2023-07-02T13:01:38;21.00;99.90
13561;DHT22;6852;51.686;5.314;2023-07-02T13:04:04;20.70;99.90
13561;DHT22;6852;51.686;5.314;2023-07-02T13:06:32;20.80;99.90
13561;DHT22;6852;51.686;5.314;2023-07-02T13:09:01;21.00;99.90
13561;DHT22;6852;51.686;5.314;2023-07-02T13:11:29;21.10;99.90
13561;DHT22;6852;51.686;5.314;2023-07-02T13:13:56;20.60;99.90
13561;DHT22;6852;51.686;5.314;2023-07-02T13:16:23;20.60;99.90
13561;DHT22;6852;51.686;5.314;2023-07-02T13:18:51;20.70;99.90
13561;DHT22;6852;51.686;5.314;2023-07-02T13:21:18;20.50;99.90
13561;DHT22;6852;51.686;5.314;2023-07-02T13:23:45;20.60;99.90
13561;DHT22;6852;51.686;5.314;2023-07-02T13:26:12;21.00;99.90
13561;DHT22;6852;51.686;5.314;2023-07-02T13:28:39;21.10;99.90
13561;DHT22;6852;51.686;5.314;2023-07-02T13:31:06;21.10;99.90
13561;DHT22;6852;51.686;5.314;2023-07-02T13:33:34;21.30;99.90
13561;DHT22;6852;51.686;5.314;2023-07-02T13:36:01;21.70;99.90
13561;DHT22;6852;51.686;5.314;2023-07-02T13:38:28;21.80;99.90
13561;DHT22;6852;51.686;5.314;2023-07-02T13:40:55;21.50;99.90
13561;DHT22;6852;51.686;5.314;2023-07-02T13:43:22;21.10;99.90
13561;DHT22;6852;51.686;5.314;2023-07-02T13:45:49;20.90;99.90
13561;DHT22;6852;51.686;5.314;2023-07-02T13:48:16;20.90;99.90
13561;DHT22;6852;51.686;5.314;2023-07-02T13:50:43;21.10;99.90
13561;DHT22;6852;51.686;5.314;2023-07-02T13:53:10;21.00;99.90
13561;DHT22;6852;51.686;5.314;2023-07-02T13:55:37;21.30;99.90
13561;DHT22;6852;51.686;5.314;2023-07-02T13:58:04;21.20;99.90
13561;DHT22;6852;51.686;5.314;2023-07-02T14:00:31;21.40;99.90
13561;DHT22;6852;51.686;5.314;2023-07-02T14:02:58;21.60;99.90
13561;DHT22;6852;51.686;5.314;2023-07-02T14:05:25;21.50;99.90
13561;DHT22;6852;51.686;5.314;2023-07-02T14:07:52;21.60;99.90
13561;DHT22;6852;51.686;5.314;2023-07-02T14:10:20;21.60;99.90
13561;DHT22;6852;51.686;5.314;2023-07-02T14:12:47;21.50;99.90
13561;DHT22;6852;51.686;5.314;2023-07-02T14:15:14;21.40;99.90
13561;DHT22;6852;51.686;5.314;2023-07-02T14:17:41;21.40;99.90
13561;DHT22;6852;51.686;5.314;2023-07-02T14:20:08;21.80;99.90
13561;DHT22;6852;51.686;5.314;2023-07-02T14:22:35;21.70;99.90
13561;DHT22;6852;51.686;5.314;2023-07-02T14:25:02;21.70;99.90
13561;DHT22;6852;51.686;5.314;2023-07-02T14:27:29;21.70;99.90
13561;DHT22;6852;51.686;5.314;2023-07-02T14:29:56;21.40;99.90
13561;DHT22;6852;51.686;5.314;2023-07-02T14:32:23;21.30;99.90
13561;DHT22;6852;51.686;5.314;2023-07-02T14:34:50;21.40;99.90
13561;DHT22;6852;51.686;5.314;2023-07-02T14:37:17;21.50;99.90
13561;DHT22;6852;51.686;5.314;2023-07-02T14:39:44;21.60;99.90
13561;DHT22;6852;51.686;5.314;2023-07-02T14:42:31;21.60;99.90
13561;DHT22;6852;51.686;5.314;2023-07-02T14:44:58;21.50;99.90
13561;DHT22;6852;51.686;5.314;2023-07-02T14:47:25;21.40;99.90
13561;DHT22;6852;51.686;5.314;2023-07-02T14:49:52;21.70;99.90
13561;DHT22;6852;51.686;5.314;2023-07-02T14:52:18;21.60;99.90
13561;DHT22;6852;51.686;5.314;2023-07-02T14:54:46;21.60;99.90
13561;DHT22;6852;51.686;5.314;2023-07-02T14:57:13;21.80;99.90
13561;DHT22;6852;51.686;5.314;2023-07-02T14:59:39;22.00;99.90
13561;DHT22;6852;51.686;5.314;2023-07-02T15:02:07;21.90;99.90
13561;DHT22;6852;51.686;5.314;2023-07-02T15:04:34;22.00;99.90
13561;DHT22;6852;51.686;5.314;2023-07-02T15:07:01;21.60;99.90
13561;DHT22;6852;51.686;5.314;2023-07-02T15:09:28;21.50;99.90
13561;DHT22;6852;51.686;5.314;2023-07-02T15:11:55;21.60;99.90
13561;DHT22;6852;51.686;5.314;2023-07-02T15:14:22;21.50;99.90
13561;DHT22;6852;51.686;5.314;2023-07-02T15:16:49;21.60;99.90
13561;DHT22;6852;51.686;5.314;2023-07-02T15:19:17;21.60;99.90
13561;DHT22;6852;51.686;5.314;2023-07-02T15:21:44;21.60;99.90
13561;DHT22;6852;51.686;5.314;2023-07-02T15:24:10;21.50;99.90
13561;DHT22;6852;51.686;5.314;2023-07-02T15:26:39;21.60;99.90
13561;DHT22;6852;51.686;5.314;2023-07-02T15:29:06;21.60;99.90
13561;DHT22;6852;51.686;5.314;2023-07-02T15:31:33;21.80;99.90
13561;DHT22;6852;51.686;5.314;2023-07-02T15:34:02;21.70;99.90
13561;DHT22;6852;51.686;5.314;2023-07-02T15:36:30;21.50;99.90
13561;DHT22;6852;51.686;5.314;2023-07-02T15:39:03;21.50;99.90
13561;DHT22;6852;51.686;5.314;2023-07-02T15:41:30;21.50;99.90
13561;DHT22;6852;51.686;5.314;2023-07-02T15:43:57;21.40;99.90
13561;DHT22;6852;51.686;5.314;2023-07-02T15:46:29;21.40;99.90
13561;DHT22;6852;51.686;5.314;2023-07-02T15:48:57;21.40;99.90
13561;DHT22;6852;51.686;5.314;2023-07-02T15:51:27;21.10;99.90
13561;DHT22;6852;51.686;5.314;2023-07-02T15:53:54;20.90;99.90
13561;DHT22;6852;51.686;5.314;2023-07-02T15:56:22;21.00;99.90
13561;DHT22;6852;51.686;5.314;2023-07-02T15:58:49;20.90;99.90